Time;durP1;ratioP1;P1;durP2;ratioP2;P2;SDS_P1;SDS_P2;PMS_P1;PMS_P2;Temp;Humidity;BMP_temperature;BMP_pressure;BME280_temperature;BME280_humidity;BME280_pressure;Samples;Min_cycle;Max_cycle;Signal;HPM_P1;HPM_P2
2023/09/17 00:00:29;;;;;;;1999.90;999.90;;;;;;;16.57;100.00;94127.63;5004666;28;20191;-53
2023/09/17 00:02:55;;;;;;;1999.90;999.90;;;;;;;16.55;100.00;94121.81;5004176;28;20223;-54
2023/09/17 00:05:21;;;;;;;1999.90;999.90;;;;;;;16.51;100.00;94130.25;5004359;28;20206;-50
2023/09/17 00:07:46;;;;;;;1999.90;999.90;;;;;;;16.53;100.00;94129.78;5004616;28;20215;-52
2023/09/17 00:10:11;;;;;;;1999.90;999.90;;;;;;;16.50;100.00;94130.72;5004014;28;20297;-48
2023/09/17 00:12:37;;;;;;;1999.90;999.90;;;;;;;16.51;100.00;94132.25;5004174;28;20277;-50
2023/09/17 00:15:03;;;;;;;1999.90;999.90;;;;;;;16.52;100.00;94136.53;5004143;28;20195;-50
2023/09/17 00:17:28;;;;;;;1999.90;999.90;;;;;;;16.50;100.00;94136.25;5004232;28;20234;-51
2023/09/17 00:19:54;;;;;;;1999.90;999.90;;;;;;;16.49;100.00;94140.97;5004120;28;20187;-52
2023/09/17 00:22:19;;;;;;;1999.90;999.90;;;;;;;16.48;100.00;94150.50;5004574;28;20241;-51
2023/09/17 00:24:44;;;;;;;1999.90;999.90;;;;;;;16.44;100.00;94142.38;5004028;28;20192;-50
2023/09/17 00:27:09;;;;;;;1999.90;999.90;;;;;;;16.44;100.00;94145.16;5004223;28;20283;-54
2023/09/17 00:29:35;;;;;;;1999.90;999.90;;;;;;;16.42;100.00;94152.38;5004387;28;20274;-52
2023/09/17 00:32:00;;;;;;;1999.90;999.90;;;;;;;16.40;100.00;94155.56;5020234;28;20230;-48
2023/09/17 00:34:26;;;;;;;1999.90;999.90;;;;;;;16.38;100.00;94151.75;5003850;28;20187;-53
2023/09/17 00:36:51;;;;;;;1999.90;999.90;;;;;;;16.35;100.00;94164.50;5004037;28;20199;-53
2023/09/17 00:39:17;;;;;;;1999.90;999.90;;;;;;;16.32;100.00;94159.91;5004025;28;20211;-51
2023/09/17 00:41:43;;;;;;;1999.90;999.90;;;;;;;16.33;100.00;94175.22;5004045;28;20204;-50
2023/09/17 00:44:09;;;;;;;1999.90;999.90;;;;;;;16.30;100.00;94176.16;5003873;28;20188;-53
2023/09/17 00:46:35;;;;;;;1999.90;999.90;;;;;;;16.30;100.00;94178.16;5003851;28;20267;-53
2023/09/17 00:49:00;;;;;;;1999.90;999.90;;;;;;;16.26;100.00;94177.56;5004106;28;20211;-54
2023/09/17 00:51:26;;;;;;;1999.90;999.90;;;;;;;16.29;100.00;94179.38;5003938;28;20196;-52
2023/09/17 00:53:55;;;;;;;1999.90;999.90;;;;;;;16.29;100.00;94177.38;5003670;28;20246;-55
2023/09/17 00:56:22;;;;;;;1999.90;999.90;;;;;;;16.26;100.00;94194.09;5004035;28;20182;-52
2023/09/17 00:58:48;;;;;;;1999.90;999.90;;;;;;;16.22;100.00;94199.03;5004201;28;20202;-51
2023/09/17 01:01:14;;;;;;;1999.90;999.90;;;;;;;16.19;100.00;94206.25;5004364;28;20191;-49
2023/09/17 01:03:39;;;;;;;1999.90;999.90;;;;;;;16.14;100.00;94212.38;5003814;28;20187;-54
2023/09/17 01:06:06;;;;;;;1999.90;999.90;;;;;;;16.12;100.00;94217.59;5003694;28;20381;-53
2023/09/17 01:08:32;;;;;;;1999.90;999.90;;;;;;;16.12;100.00;94216.81;5004012;28;20192;-54
2023/09/17 01:10:58;;;;;;;1999.90;999.90;;;;;;;16.14;100.00;94215.13;5005566;28;20199;-50
2023/09/17 01:13:24;;;;;;;1999.90;999.90;;;;;;;16.17;100.00;94208.69;5007116;28;20215;-53
2023/09/17 01:15:51;;;;;;;1999.90;999.90;;;;;;;16.18;100.00;94204.69;5007278;28;20194;-51
2023/09/17 01:18:21;;;;;;;1999.90;999.90;;;;;;;16.16;100.00;94211.91;5007133;28;20183;-49
2023/09/17 01:21:14;;;;;;;1999.90;999.90;;;;;;;16.16;100.00;94217.41;5007661;28;20194;-53
2023/09/17 01:24:18;;;;;;;1999.90;999.90;;;;;;;16.11;100.00;94227.06;5023822;28;20202;-54
2023/09/17 01:26:52;;;;;;;1999.90;999.90;;;;;;;16.10;100.00;94228.31;4977562;28;20223;-49
2023/09/17 01:29:22;;;;;;;1999.90;999.90;;;;;;;16.10;100.00;94231.06;5007104;28;20199;-53
2023/09/17 01:31:48;;;;;;;1999.90;999.90;;;;;;;16.09;100.00;94223.25;5007020;28;20192;-48
2023/09/17 01:34:13;;;;;;;1999.90;999.90;;;;;;;16.02;100.00;94224.38;5006882;28;20261;-50
2023/09/17 01:36:40;;;;;;;1999.90;999.90;;;;;;;15.99;100.00;94230.81;5007554;28;20250;-49
2023/09/17 01:39:14;;;;;;;1999.90;999.90;;;;;;;15.95;100.00;94241.25;5006665;28;20184;-50
2023/09/17 01:41:42;;;;;;;1999.90;999.90;;;;;;;15.95;100.00;94240.47;5007075;28;20223;-49
2023/09/17 01:44:09;;;;;;;1999.90;999.90;;;;;;;15.92;100.00;94235.91;5007096;28;20515;-51
2023/09/17 01:46:37;;;;;;;1999.90;999.90;;;;;;;15.90;100.00;94239.13;5006612;28;20238;-53
2023/09/17 01:49:04;;;;;;;1999.90;999.90;;;;;;;15.88;100.00;94236.06;5006702;28;20203;-51
2023/09/17 01:51:31;;;;;;;1999.90;999.90;;;;;;;15.85;100.00;94242.50;5006650;28;20206;-48
2023/09/17 01:53:58;;;;;;;1999.90;999.90;;;;;;;15.86;100.00;94237.75;5006382;28;20199;-52
2023/09/17 01:56:23;;;;;;;1999.90;999.90;;;;;;;15.83;100.00;94238.69;5006925;28;20227;-50
2023/09/17 01:58:49;;;;;;;1999.90;999.90;;;;;;;15.79;100.00;94243.59;5006566;28;20195;-48
2023/09/17 02:01:14;;;;;;;1999.90;999.90;;;;;;;15.73;100.00;94248.19;5006482;28;20262;-51
2023/09/17 02:03:39;;;;;;;1999.90;999.90;;;;;;;15.69;100.00;94251.13;5006276;28;20188;-51
2023/09/17 02:06:05;;;;;;;1999.90;999.90;;;;;;;15.71;100.00;94248.69;5006765;28;20180;-49
2023/09/17 02:08:30;;;;;;;1999.90;999.90;;;;;;;15.75;100.00;94243.00;5006880;28;20267;-49
2023/09/17 02:10:56;;;;;;;1999.90;999.90;;;;;;;15.71;100.00;94237.69;5006628;28;20195;-51
2023/09/17 02:13:21;;;;;;;1999.90;999.90;;;;;;;15.69;100.00;94231.84;5006353;28;20254;-52
2023/09/17 02:15:47;;;;;;;1999.90;999.90;;;;;;;15.68;100.00;94238.59;5006111;28;20192;-49
2023/09/17 02:18:12;;;;;;;1999.90;999.90;;;;;;;15.66;100.00;94240.28;5005985;28;20195;-53
2023/09/17 02:20:39;;;;;;;1999.90;999.90;;;;;;;15.64;100.00;94242.72;5005973;28;20191;-51
2023/09/17 02:23:04;;;;;;;1999.90;999.90;;;;;;;15.64;100.00;94249.00;5004678;28;20199;-53
2023/09/17 02:25:29;;;;;;;1999.90;999.90;;;;;;;15.64;100.00;94246.25;5006062;28;20266;-48
2023/09/17 02:27:54;;;;;;;1999.90;999.90;;;;;;;15.61;100.00;94247.19;5005976;28;20195;-50
2023/09/17 02:30:20;;;;;;;1999.90;999.90;;;;;;;15.62;100.00;94248.69;5005957;28;20191;-48
2023/09/17 02:32:45;;;;;;;1999.90;999.90;;;;;;;15.62;100.00;94256.97;5005674;28;20208;-51
2023/09/17 02:35:11;;;;;;;1999.90;999.90;;;;;;;15.62;100.00;94262.47;5006119;28;20191;-52
2023/09/17 02:37:37;;;;;;;1999.90;999.90;;;;;;;15.63;100.00;94263.22;5006124;28;20187;-49
2023/09/17 02:40:05;;;;;;;1999.90;999.90;;;;;;;15.64;100.00;94260.03;5006095;28;20206;-52
2023/09/17 02:42:31;;;;;;;1999.90;999.90;;;;;;;15.64;100.00;94264.75;5005917;28;20243;-52
2023/09/17 02:44:56;;;;;;;1999.90;999.90;;;;;;;15.63;100.00;94275.00;5005868;28;20200;-48
2023/09/17 02:47:21;;;;;;;1999.90;999.90;;;;;;;15.62;100.00;94278.19;5005990;28;20192;-49
2023/09/17 02:49:47;;;;;;;1999.90;999.90;;;;;;;15.60;100.00;94297.97;5005332;28;20196;-50
2023/09/17 02:52:12;;;;;;;1999.90;999.90;;;;;;;15.60;100.00;94292.44;5005261;28;20208;-51
2023/09/17 02:54:37;;;;;;;1999.90;999.90;;;;;;;15.61;100.00;94299.47;5005259;28;20238;-53
2023/09/17 02:57:03;;;;;;;1999.90;999.90;;;;;;;15.58;100.00;94316.13;5005408;28;20202;-53
2023/09/17 02:59:29;;;;;;;1999.90;999.90;;;;;;;15.55;100.00;94322.59;5005292;28;20237;-49
2023/09/17 03:01:54;;;;;;;1999.90;999.90;;;;;;;15.54;100.00;94332.81;5005596;28;20195;-49
2023/09/17 03:04:19;;;;;;;1999.90;999.90;;;;;;;15.55;100.00;94339.09;5005111;28;20225;-47
2023/09/17 03:06:45;;;;;;;1999.90;999.90;;;;;;;15.52;100.00;94345.50;5004992;28;20195;-48
2023/09/17 03:09:11;;;;;;;1999.90;999.90;;;;;;;15.53;100.00;94342.31;5005495;28;20182;-48
2023/09/17 03:11:39;;;;;;;1999.90;999.90;;;;;;;15.53;100.00;94347.81;5005320;28;20191;-49
2023/09/17 03:14:05;;;;;;;1999.90;999.90;;;;;;;15.51;100.00;94350.25;5021810;28;20219;-49
2023/09/17 03:16:30;;;;;;;1999.90;999.90;;;;;;;15.50;100.00;94354.22;5004921;28;20199;-50
2023/09/17 03:18:56;;;;;;;1999.90;999.90;;;;;;;15.50;100.00;94348.72;5004971;28;20270;-51
2023/09/17 03:21:21;;;;;;;1999.90;999.90;;;;;;;15.51;100.00;94350.25;5021424;28;20195;-48
2023/09/17 03:23:47;;;;;;;1999.90;999.90;;;;;;;15.48;100.00;94351.16;5004724;28;20219;-49
2023/09/17 03:26:12;;;;;;;1999.90;999.90;;;;;;;15.48;100.00;94359.41;5005432;28;20188;-49
2023/09/17 03:28:37;;;;;;;1999.90;999.90;;;;;;;15.47;100.00;94363.41;5004977;28;20267;-53
2023/09/17 03:31:03;;;;;;;1999.90;999.90;;;;;;;15.48;100.00;94369.69;5004684;28;20191;-52
2023/09/17 03:33:29;;;;;;;1999.90;999.90;;;;;;;15.46;100.00;94372.88;5021404;28;20204;-50
2023/09/17 03:35:54;;;;;;;1999.90;999.90;;;;;;;15.48;100.00;94372.44;5005184;28;20199;-52
2023/09/17 03:38:20;;;;;;;1999.90;999.90;;;;;;;15.46;100.00;94375.63;5004540;28;20183;-48
2023/09/17 03:40:46;;;;;;;1999.90;999.90;;;;;;;15.47;100.00;94377.16;5005297;28;20192;-49
2023/09/17 03:43:11;;;;;;;1999.90;999.90;;;;;;;15.46;100.00;94372.09;5004922;28;20184;-51
2023/09/17 03:45:36;;;;;;;1999.90;999.90;;;;;;;15.45;100.00;94374.09;5004872;28;20201;-51
2023/09/17 03:48:04;;;;;;;1999.90;999.90;;;;;;;15.43;100.00;94386.78;5004573;28;20255;-51
2023/09/17 03:50:30;;;;;;;1999.90;999.90;;;;;;;15.40;100.00;94385.72;5004341;28;20191;-50
2023/09/17 03:52:58;;;;;;;1999.90;999.90;;;;;;;15.38;100.00;94387.41;5004804;28;20199;-50
2023/09/17 03:55:23;;;;;;;1999.90;999.90;;;;;;;15.34;100.00;94384.75;5004497;28;20191;-51
2023/09/17 03:57:50;;;;;;;1999.90;999.90;;;;;;;15.28;100.00;94381.09;5004407;28;20271;-46
2023/09/17 04:00:17;;;;;;;1999.90;999.90;;;;;;;15.24;100.00;94383.25;5004408;28;20203;-49
2023/09/17 04:02:45;;;;;;;1999.90;999.90;;;;;;;15.18;100.00;94379.56;5004757;28;20198;-51
2023/09/17 04:05:12;;;;;;;1999.90;999.90;;;;;;;15.14;100.00;94381.69;5003960;28;20219;-54
2023/09/17 04:07:39;;;;;;;1999.90;999.90;;;;;;;15.13;100.00;94385.69;5004253;28;20191;-48
2023/09/17 04:10:06;;;;;;;1999.90;999.90;;;;;;;15.09;100.00;94379.56;5004421;28;20187;-50
2023/09/17 04:12:32;;;;;;;1999.90;999.90;;;;;;;15.10;100.00;94381.09;5004546;28;20212;-47
2023/09/17 04:14:57;;;;;;;1999.90;999.90;;;;;;;15.09;100.00;94368.56;5004654;28;20238;-47
2023/09/17 04:17:23;;;;;;;1999.90;999.90;;;;;;;15.10;100.00;94359.09;5004135;28;20194;-46
2023/09/17 04:19:50;;;;;;;1999.90;999.90;;;;;;;15.09;100.00;94354.03;5004326;28;20188;-47
2023/09/17 04:22:16;;;;;;;1999.90;999.90;;;;;;;15.09;100.00;94352.06;5004260;28;20206;-48
2023/09/17 04:24:42;;;;;;;1999.90;999.90;;;;;;;15.06;100.00;94349.44;5004198;28;20191;-47
2023/09/17 04:27:08;;;;;;;1999.90;999.90;;;;;;;15.03;100.00;94347.59;5004316;28;20267;-48
2023/09/17 04:29:33;;;;;;;1999.90;999.90;;;;;;;14.99;100.00;94347.78;5004336;28;20195;-46
2023/09/17 04:31:59;;;;;;;1999.90;999.90;;;;;;;14.96;100.00;94340.44;5003935;28;20235;-46
2023/09/17 04:34:24;;;;;;;1999.90;999.90;;;;;;;14.93;100.00;94344.09;5004279;28;20195;-50
2023/09/17 04:36:50;;;;;;;1999.90;999.90;;;;;;;14.89;100.00;94345.44;5003922;28;20197;-49
2023/09/17 04:39:16;;;;;;;1999.90;999.90;;;;;;;14.88;100.00;94338.44;5004439;28;20195;-49
2023/09/17 04:41:42;;;;;;;1999.90;999.90;;;;;;;14.88;100.00;94322.72;5004307;28;20196;-48
2023/09/17 04:44:07;;;;;;;1999.90;999.90;;;;;;;14.87;100.00;94329.44;5004499;28;20194;-51
2023/09/17 04:46:45;;;;;;;1999.90;999.90;;;;;;;14.84;100.00;94324.84;5006719;28;20191;-50
2023/09/17 04:49:11;;;;;;;1999.90;999.90;;;;;;;14.81;100.00;94328.50;5007576;28;20195;-47
2023/09/17 04:51:36;;;;;;;1999.90;999.90;;;;;;;14.81;100.00;94325.75;5007492;28;20199;-46
2023/09/17 04:54:03;;;;;;;1999.90;999.90;;;;;;;14.82;100.00;94319.03;5007570;28;20217;-49
2023/09/17 04:56:32;;;;;;;1999.90;999.90;;;;;;;14.85;100.00;94320.88;5007631;28;20202;-48
2023/09/17 04:58:58;;;;;;;1999.90;999.90;;;;;;;14.87;100.00;94307.44;5007577;28;20199;-51
2023/09/17 05:01:24;;;;;;;1999.90;999.90;;;;;;;14.88;100.00;94314.47;5007637;28;20191;-49
2023/09/17 05:03:50;;;;;;;1999.90;999.90;;;;;;;14.88;100.00;94316.44;5007723;28;20265;-52
2023/09/17 05:06:15;;;;;;;1999.90;999.90;;;;;;;14.95;100.00;94303.16;5007876;28;20195;-51
2023/09/17 05:08:41;;;;;;;1999.90;999.90;;;;;;;15.18;100.00;94299.81;5007673;28;20198;-49
2023/09/17 05:11:06;;;;;;;1999.90;999.90;;;;;;;15.44;100.00;94292.78;5007641;28;20250;-48
2023/09/17 05:13:31;;;;;;;1999.90;999.90;;;;;;;15.78;100.00;94297.88;5007287;28;20547;-49
2023/09/17 05:15:57;;;;;;;1999.90;999.90;;;;;;;15.86;100.00;94326.66;5007534;28;20199;-49
2023/09/17 05:18:23;;;;;;;1999.90;999.90;;;;;;;16.09;100.00;94344.47;5007163;28;20221;-52
2023/09/17 05:20:48;;;;;;;1999.90;999.90;;;;;;;16.53;100.00;94380.63;5006981;28;20199;-54
2023/09/17 05:23:14;;;;;;;1999.90;999.90;;;;;;;17.06;100.00;94432.00;5007191;28;20198;-55
2023/09/17 05:25:40;;;;;;;1999.90;999.90;;;;;;;17.58;100.00;94549.34;5007420;28;20188;-53
2023/09/17 05:28:08;;;;;;;1999.90;999.90;;;;;;;18.15;100.00;94713.88;5006919;28;20199;-51
2023/09/17 05:30:34;;;;;;;1999.90;999.90;;;;;;;18.64;100.00;94882.97;5007198;28;20238;-48
2023/09/17 05:33:00;;;;;;;1999.90;999.90;;;;;;;19.11;100.00;95018.69;5007219;28;20215;-48
2023/09/17 05:35:25;;;;;;;1999.90;999.90;;;;;;;19.65;100.00;95147.94;5007227;28;20181;-51
2023/09/17 05:37:50;;;;;;;1999.90;999.90;;;;;;;19.65;100.00;95226.31;5007324;28;20195;-49
2023/09/17 05:40:16;;;;;;;1999.90;999.90;;;;;;;20.23;100.00;95250.94;5007226;28;20262;-51
2023/09/17 05:42:41;;;;;;;1999.90;999.90;;;;;;;20.69;100.00;95286.28;5006591;28;20250;-55
2023/09/17 05:45:08;;;;;;;1999.90;999.90;;;;;;;20.55;100.00;95306.44;5006715;28;20199;-52
2023/09/17 05:47:33;;;;;;;1999.90;999.90;;;;;;;20.92;100.00;95318.09;5006593;28;20249;-54
2023/09/17 05:49:59;;;;;;;1999.90;999.90;;;;;;;21.56;100.00;95331.09;5006657;28;20188;-61
2023/09/17 05:52:24;;;;;;;1999.90;999.90;;;;;;;21.96;100.00;95325.06;5006330;28;20235;-62
2023/09/17 05:54:50;;;;;;;1999.90;999.90;;;;;;;22.31;100.00;95335.03;5006888;28;20195;-60
2023/09/17 05:57:16;;;;;;;1999.90;999.90;;;;;;;22.16;100.00;95339.84;5006077;28;20282;-61
2023/09/17 05:59:41;;;;;;;1999.90;999.90;;;;;;;22.38;100.00;95340.22;5006439;28;20191;-59
2023/09/17 06:02:09;;;;;;;1999.90;999.90;;;;;;;21.98;100.00;95353.94;5006805;28;20204;-59
2023/09/17 06:04:35;;;;;;;1999.90;999.90;;;;;;;21.29;100.00;95361.88;5006668;28;20192;-60
2023/09/17 06:07:00;;;;;;;1999.90;999.90;;;;;;;20.98;100.00;95369.03;5006196;28;20175;-62
2023/09/17 06:09:26;;;;;;;1999.90;999.90;;;;;;;20.54;100.00;95379.81;5006424;28;20222;-59
2023/09/17 06:11:51;;;;;;;1999.90;999.90;;;;;;;20.22;100.00;95377.00;5006283;28;20218;-48
2023/09/17 06:14:17;;;;;;;1999.90;999.90;;;;;;;19.93;100.00;95369.16;5006021;28;20206;-46
2023/09/17 06:16:42;;;;;;;1999.90;999.90;;;;;;;19.79;100.00;95352.38;5006519;28;20194;-45
2023/09/17 06:19:08;;;;;;;1999.90;999.90;;;;;;;19.72;100.00;95347.94;5006016;28;20270;-47
2023/09/17 06:21:33;;;;;;;1999.90;999.90;;;;;;;19.74;100.00;95339.91;5005913;28;20192;-47
2023/09/17 06:23:58;;;;;;;1999.90;999.90;;;;;;;19.83;100.00;95320.50;5006086;28;20246;-48
2023/09/17 06:26:24;;;;;;;1999.90;999.90;;;;;;;20.04;100.00;95324.31;5006001;28;20203;-46
2023/09/17 06:28:49;;;;;;;1999.90;999.90;;;;;;;20.21;100.00;95323.50;5006119;28;20187;-49
2023/09/17 06:31:15;;;;;;;1999.90;999.90;;;;;;;20.45;100.00;95332.69;5005993;28;20196;-50
2023/09/17 06:33:40;;;;;;;1999.90;999.90;;;;;;;20.40;100.00;95327.75;5005626;28;20235;-48
2023/09/17 06:36:06;;;;;;;1999.90;999.90;;;;;;;20.62;100.00;95342.19;5005546;28;20251;-49
2023/09/17 06:38:31;;;;;;;1999.90;999.90;;;;;;;20.90;100.00;95357.44;5005886;28;20172;-51
2023/09/17 06:40:57;;;;;;;1999.90;999.90;;;;;;;21.01;100.00;95354.94;5005765;28;20192;-47
2023/09/17 06:43:22;;;;;;;1999.90;999.90;;;;;;;21.03;100.00;95355.25;5005521;28;20280;-47
2023/09/17 06:45:48;;;;;;;1999.90;999.90;;;;;;;20.99;100.00;95360.22;5005746;28;20195;-48
2023/09/17 06:48:14;;;;;;;1999.90;999.90;;;;;;;21.03;100.00;95365.59;5005398;28;20195;-45
2023/09/17 06:50:39;;;;;;;1999.90;999.90;;;;;;;21.17;100.00;95365.66;5005605;28;20196;-49
2023/09/17 06:53:04;;;;;;;1999.90;999.90;;;;;;;21.41;100.00;95369.19;5005154;28;20211;-48
2023/09/17 06:55:30;;;;;;;1999.90;999.90;;;;;;;21.23;100.00;95366.53;5021491;28;20191;-46
2023/09/17 06:57:55;;;;;;;1999.90;999.90;;;;;;;21.29;100.00;95367.44;5004997;28;20196;-50
2023/09/17 07:00:20;;;;;;;1999.90;999.90;;;;;;;21.43;100.00;95375.06;5005257;28;20188;-51
2023/09/17 07:02:46;;;;;;;1999.90;999.90;;;;;;;21.62;100.00;95372.91;5005617;28;20256;-46
2023/09/17 07:05:11;;;;;;;1999.90;999.90;;;;;;;22.20;100.00;95384.94;5005084;28;20188;-46
2023/09/17 07:07:37;;;;;;;1999.90;999.90;;;;;;;22.91;100.00;95383.88;5004436;28;20250;-46
2023/09/17 07:10:04;;;;;;;1999.90;999.90;;;;;;;23.62;100.00;95389.69;5005300;28;20206;-48
2023/09/17 07:12:29;;;;;;;1999.90;999.90;;;;;;;24.73;100.00;95378.50;5005427;28;20204;-47
2023/09/17 07:14:55;;;;;;;1999.90;999.90;;;;;;;25.29;100.00;95377.66;5004924;28;20212;-48
2023/09/17 07:17:20;;;;;;;1999.90;999.90;;;;;;;25.91;100.00;95388.63;5004779;28;20266;-49
2023/09/17 07:19:46;;;;;;;1999.90;999.90;;;;;;;26.50;100.00;95380.94;5004815;28;20246;-47
2023/09/17 07:22:14;;;;;;;1999.90;999.90;;;;;;;27.51;100.00;95381.19;5004878;28;20199;-47
2023/09/17 07:24:41;;;;;;;1999.90;999.90;;;;;;;27.43;100.00;95397.00;5004718;28;20214;-49
2023/09/17 07:27:06;;;;;;;1999.90;999.90;;;;;;;27.39;100.00;95396.50;5004763;28;20209;-47
2023/09/17 07:29:32;;;;;;;1999.90;999.90;;;;;;;27.83;100.00;95390.78;5004855;28;20223;-58
2023/09/17 07:31:57;;;;;;;1999.90;999.90;;;;;;;28.43;100.00;95391.06;5020909;28;20199;-60
2023/09/17 07:34:24;;;;;;;1999.90;999.90;;;;;;;29.16;100.00;95382.31;5005054;28;20205;-59
2023/09/17 07:36:50;;;;;;;1999.90;999.90;;;;;;;29.71;100.00;95392.31;5004584;28;20226;-58
2023/09/17 07:39:15;;;;;;;1999.90;999.90;;;;;;;30.41;100.00;95389.88;5005010;28;20176;-60
2023/09/17 07:41:41;;;;;;;1999.90;999.90;;;;;;;30.64;100.00;95384.69;5004993;28;20196;-59
2023/09/17 07:44:07;;;;;;;1999.90;999.90;;;;;;;30.99;100.00;95388.00;5004772;28;20203;-60
2023/09/17 07:46:32;;;;;;;1999.90;999.90;;;;;;;32.70;100.00;95395.28;5004921;28;20200;-60
2023/09/17 07:49:00;;;;;;;1999.90;999.90;;;;;;;33.48;93.31;95397.78;5004356;28;20250;-61
2023/09/17 07:51:25;;;;;;;1999.90;999.90;;;;;;;33.50;87.98;95392.34;5004284;28;20196;-59
2023/09/17 07:53:51;;;;;;;1999.90;999.90;;;;;;;33.13;86.27;95402.00;5004552;28;20222;-61
2023/09/17 07:56:16;;;;;;;1999.90;999.90;;;;;;;33.70;82.90;95392.31;5020670;28;20200;-61
2023/09/17 07:58:41;;;;;;;1999.90;999.90;;;;;;;33.92;80.76;95398.69;5003988;28;20209;-59
2023/09/17 08:01:07;;;;;;;1999.90;999.90;;;;;;;34.49;77.95;95398.13;5004349;28;20227;-58
2023/09/17 08:03:32;;;;;;;1999.90;999.90;;;;;;;34.81;73.52;95403.31;5004258;28;20267;-60
2023/09/17 08:05:58;;;;;;;1999.90;999.90;;;;;;;35.04;69.57;95407.78;5004363;28;20195;-60
2023/09/17 08:08:23;;;;;;;1999.90;999.90;;;;;;;35.37;65.12;95411.63;5004618;28;20214;-60
2023/09/17 08:10:49;;;;;;;1999.90;999.90;;;;;;;35.10;66.36;95416.13;5004239;28;20180;-60
2023/09/17 08:13:14;;;;;;;1999.90;999.90;;;;;;;35.88;64.57;95415.06;5004280;28;20212;-60
2023/09/17 08:15:40;;;;;;;1999.90;999.90;;;;;;;35.94;62.95;95412.78;5020481;28;20222;-60
2023/09/17 08:18:06;;;;;;;1999.90;999.90;;;;;;;35.76;63.80;95408.97;5004132;28;20204;-62
2023/09/17 08:20:32;;;;;;;1999.90;999.90;;;;;;;36.23;63.24;95411.97;5006867;28;20192;-62
2023/09/17 08:22:58;;;;;;;1999.90;999.90;;;;;;;35.49;66.39;95412.75;5008129;28;20195;-62
2023/09/17 08:25:24;;;;;;;1999.90;999.90;;;;;;;35.69;65.55;95406.16;5007917;28;20187;-63
2023/09/17 08:27:51;;;;;;;1999.90;999.90;;;;;;;35.83;66.29;95408.25;5008247;28;20215;-62
2023/09/17 08:30:16;;;;;;;1999.90;999.90;;;;;;;35.11;68.56;95407.03;5007951;28;20187;-62
2023/09/17 08:32:43;;;;;;;1999.90;999.90;;;;;;;35.05;68.30;95402.84;5024656;28;20286;-62
2023/09/17 08:35:11;;;;;;;1999.90;999.90;;;;;;;34.76;68.27;95412.75;5008354;28;20187;-61
2023/09/17 08:37:38;;;;;;;1999.90;999.90;;;;;;;34.87;68.11;95409.59;5007728;28;20222;-64
2023/09/17 08:40:10;;;;;;;1999.90;999.90;;;;;;;35.75;66.37;95401.78;5008304;28;20195;-62
2023/09/17 08:42:38;;;;;;;1999.90;999.90;;;;;;;36.18;63.69;95409.31;5008050;28;20203;-62
2023/09/17 08:45:05;;;;;;;1999.90;999.90;;;;;;;36.71;62.21;95401.41;5007653;28;20200;-63
2023/09/17 08:47:31;;;;;;;1999.90;999.90;;;;;;;36.58;61.85;95405.25;5007480;28;20198;-62
2023/09/17 08:49:56;;;;;;;1999.90;999.90;;;;;;;36.82;60.82;95409.53;5007745;28;20187;-64
2023/09/17 08:52:24;;;;;;;1999.90;999.90;;;;;;;35.49;62.93;95407.09;5007412;28;20237;-62
2023/09/17 08:54:51;;;;;;;1999.90;999.90;;;;;;;35.77;62.76;95398.41;5007409;28;20192;-61
2023/09/17 08:57:21;;;;;;;1999.90;999.90;;;;;;;36.06;60.21;95408.97;5007222;28;20203;-64
2023/09/17 08:59:57;;;;;;;1999.90;999.90;;;;;;;35.41;66.38;95406.31;5007383;28;20204;-62
2023/09/17 09:02:29;;;;;;;1999.90;999.90;;;;;;;34.82;69.29;95408.47;5007513;28;20199;-62
2023/09/17 09:04:55;;;;;;;1999.90;999.90;;;;;;;34.50;71.41;95407.38;5007573;28;20196;-62
2023/09/17 09:07:22;;;;;;;1999.90;999.90;;;;;;;34.00;71.72;95414.44;5007649;28;20196;-62
2023/09/17 09:09:51;;;;;;;1999.90;999.90;;;;;;;34.15;73.21;95408.13;5007443;28;20223;-62
2023/09/17 09:12:17;;;;;;;1999.90;999.90;;;;;;;34.16;74.29;95403.97;5007249;28;20210;-62
2023/09/17 09:14:44;;;;;;;1999.90;999.90;;;;;;;33.91;74.29;95406.47;5007347;28;20192;-62
2023/09/17 09:17:10;;;;;;;1999.90;999.90;;;;;;;34.76;70.12;95404.25;5007506;28;20226;-62
2023/09/17 09:19:37;;;;;;;1999.90;999.90;;;;;;;34.89;68.89;95412.66;5007156;28;20192;-62
2023/09/17 09:22:02;;;;;;;1999.90;999.90;;;;;;;35.23;65.19;95408.19;5007215;28;20199;-62
2023/09/17 09:24:42;;;;;;;1999.90;999.90;;;;;;;34.45;67.02;95408.31;5007236;28;20274;-61
2023/09/17 09:27:07;;;;;;;1999.90;999.90;;;;;;;34.32;65.72;95406.31;5023197;28;20199;-64
2023/09/17 09:29:33;;;;;;;1999.90;999.90;;;;;;;34.91;66.80;95402.25;5022980;28;20196;-62
2023/09/17 09:31:59;;;;;;;1999.90;999.90;;;;;;;35.15;63.65;95400.97;5006385;28;20215;-63
2023/09/17 09:34:27;;;;;;;1999.90;999.90;;;;;;;35.14;64.52;95405.88;5007143;28;20192;-62
2023/09/17 09:36:54;;;;;;;1999.90;999.90;;;;;;;35.51;61.86;95404.44;5006799;28;20196;-62
2023/09/17 09:39:20;;;;;;;1999.90;999.90;;;;;;;34.92;63.18;95400.16;5006556;28;20198;-61
2023/09/17 09:41:46;;;;;;;1999.90;999.90;;;;;;;35.23;63.67;95407.41;5007037;28;20234;-61
2023/09/17 09:44:12;;;;;;;1999.90;999.90;;;;;;;34.92;67.21;95400.91;5006516;28;20191;-59
2023/09/17 09:46:37;;;;;;;1999.90;999.90;;;;;;;34.58;65.85;95399.63;5006712;28;20191;-61
2023/09/17 09:49:03;;;;;;;1999.90;999.90;;;;;;;34.68;64.00;95403.47;5006744;28;20187;-61
2023/09/17 09:51:35;;;;;;;1999.90;999.90;;;;;;;34.44;61.95;95401.13;5006467;28;20195;-59
2023/09/17 09:54:01;;;;;;;1999.90;999.90;;;;;;;34.33;64.02;95396.50;5006574;28;20214;-60
2023/09/17 09:56:28;;;;;;;1999.90;999.90;;;;;;;33.31;65.42;95403.84;5006213;28;20215;-60
2023/09/17 09:58:57;;;;;;;1999.90;999.90;;;;;;;33.38;67.92;95400.38;5006938;28;20219;-60
2023/09/17 10:01:23;;;;;;;1999.90;999.90;;;;;;;32.87;68.82;95401.34;5006637;28;20202;-61
2023/09/17 10:03:50;;;;;;;1999.90;999.90;;;;;;;32.84;72.73;95397.53;5006169;28;20219;-60
2023/09/17 10:06:16;;;;;;;1999.90;999.90;;;;;;;32.86;73.13;95403.44;5006732;28;20203;-61
2023/09/17 10:08:41;;;;;;;1999.90;999.90;;;;;;;33.31;68.34;95398.19;5006269;28;20192;-62
2023/09/17 10:11:07;;;;;;;1999.90;999.90;;;;;;;33.29;71.93;95394.41;5006037;28;20236;-62
2023/09/17 10:13:33;;;;;;;1999.90;999.90;;;;;;;32.90;74.49;95395.34;5006467;28;20211;-61
2023/09/17 10:16:00;;;;;;;1999.90;999.90;;;;;;;33.13;77.21;95396.31;5006208;28;20188;-61
2023/09/17 10:18:27;;;;;;;1999.90;999.90;;;;;;;34.17;69.68;95392.06;5006090;28;20192;-61
2023/09/17 10:20:54;;;;;;;1999.90;999.90;;;;;;;34.48;64.84;95393.00;5005882;28;20187;-62
2023/09/17 10:23:22;;;;;;;1999.90;999.90;;;;;;;34.14;66.76;95398.06;5006268;28;20196;-62
2023/09/17 10:25:50;;;;;;;1999.90;999.90;;;;;;;33.55;70.49;95389.38;5005827;28;20203;-61
2023/09/17 10:28:16;;;;;;;1999.90;999.90;;;;;;;32.77;77.43;95384.03;5005997;28;20271;-61
2023/09/17 10:30:45;;;;;;;1999.90;999.90;;;;;;;32.34;79.77;95382.97;5006172;28;20191;-61
2023/09/17 10:33:11;;;;;;;1999.90;999.90;;;;;;;31.87;84.61;95380.06;5005574;28;20234;-61
2023/09/17 10:35:38;;;;;;;1999.90;999.90;;;;;;;32.21;85.27;95375.25;5005848;28;20230;-61
2023/09/17 10:38:05;;;;;;;1999.90;999.90;;;;;;;32.60;81.03;95383.69;5005780;28;20192;-61
2023/09/17 10:40:32;;;;;;;1999.90;999.90;;;;;;;32.52;80.91;95394.13;5005717;28;20191;-61
2023/09/17 10:42:57;;;;;;;1999.90;999.90;;;;;;;31.95;85.46;95391.47;5004618;28;20235;-61
2023/09/17 10:45:24;;;;;;;1999.90;999.90;;;;;;;31.84;88.65;95391.69;5005468;28;20188;-61